Time;durP1;ratioP1;P1;durP2;ratioP2;P2;SDS_P1;SDS_P2;PMS_P1;PMS_P2;Temp;Humidity;BMP_temperature;BMP_pressure;BME280_temperature;BME280_humidity;BME280_pressure;Samples;Min_cycle;Max_cycle;Signal;HPM_P1;HPM_P2
2023/03/30 00:00:19;;;;;;;6.70;3.85;;;14.30;73.80;;;;;;5036629;28;20033;-60
2023/03/30 00:02:48;;;;;;;9.15;3.53;;;14.30;73.70;;;;;;5043034;28;20120;-59
2023/03/30 00:05:15;;;;;;;10.23;3.80;;;14.30;73.70;;;;;;5035685;28;20130;-59
2023/03/30 00:07:41;;;;;;;8.27;3.50;;;14.30;73.60;;;;;;5038198;28;20288;-60
2023/03/30 00:10:13;;;;;;;6.93;3.17;;;14.30;73.50;;;;;;5051445;28;20029;-59
2023/03/30 00:12:39;;;;;;;7.15;3.70;;;14.30;73.40;;;;;;5039491;28;20338;-59
2023/03/30 00:15:11;;;;;;;9.85;3.40;;;14.30;73.30;;;;;;5045424;28;20457;-59
2023/03/30 00:17:38;;;;;;;7.97;3.20;;;14.30;73.10;;;;;;5042848;28;20038;-59
2023/03/30 00:20:07;;;;;;;8.13;3.45;;;14.30;73.10;;;;;;5052167;28;20037;-60
2023/03/30 00:22:33;;;;;;;8.77;3.00;;;14.30;73.00;;;;;;5042229;28;20053;-60
2023/03/30 00:24:59;;;;;;;11.52;3.38;;;14.30;72.90;;;;;;5050643;28;20148;-59
2023/03/30 00:27:25;;;;;;;7.53;3.28;;;14.30;72.80;;;;;;5038815;28;20025;-59
2023/03/30 00:29:51;;;;;;;8.18;3.38;;;14.30;72.70;;;;;;5047260;28;20119;-59
2023/03/30 00:32:17;;;;;;;7.53;3.25;;;14.30;72.60;;;;;;5042757;28;20112;-59
2023/03/30 00:34:43;;;;;;;8.82;3.83;;;14.30;72.60;;;;;;5056263;28;20120;-59
2023/03/30 00:37:08;;;;;;;7.32;3.30;;;14.40;72.60;;;;;;5048164;28;20038;-59
2023/03/30 00:39:35;;;;;;;7.05;2.70;;;14.30;72.60;;;;;;5037951;28;20072;-59
2023/03/30 00:42:00;;;;;;;7.53;3.03;;;14.30;72.50;;;;;;5035691;28;20390;-59
2023/03/30 00:45:03;;;;;;;6.18;2.67;;;14.30;72.40;;;;;;5054808;28;20072;-60
2023/03/30 00:47:29;;;;;;;8.48;2.92;;;14.30;72.30;;;;;;5041169;28;20022;-59
2023/03/30 00:49:55;;;;;;;6.78;2.92;;;14.30;72.30;;;;;;5047191;28;20366;-60
2023/03/30 00:52:23;;;;;;;8.27;2.88;;;14.30;72.20;;;;;;5048017;28;20439;-60
2023/03/30 00:54:52;;;;;;;6.28;2.60;;;14.30;72.20;;;;;;5050532;28;20451;-60
2023/03/30 00:57:21;;;;;;;6.22;2.38;;;14.30;72.10;;;;;;5042670;28;20036;-60
2023/03/30 00:59:49;;;;;;;6.78;2.63;;;14.30;72.10;;;;;;5038820;28;20032;-60
2023/03/30 01:02:15;;;;;;;6.00;2.70;;;14.30;72.00;;;;;;5035098;28;20115;-59
2023/03/30 01:04:41;;;;;;;5.85;2.40;;;14.30;71.90;;;;;;5051516;28;20021;-59
2023/03/30 01:07:11;;;;;;;7.88;2.75;;;14.40;71.80;;;;;;5042673;28;20446;-60
2023/03/30 01:09:41;;;;;;;8.88;2.55;;;14.30;71.70;;;;;;5037744;28;20080;-59
2023/03/30 01:12:07;;;;;;;6.07;2.40;;;14.40;71.70;;;;;;5022308;28;20037;-60
2023/03/30 01:14:34;;;;;;;8.20;2.58;;;14.40;71.60;;;;;;5050245;28;20431;-59
2023/03/30 01:17:05;;;;;;;6.22;2.60;;;14.40;71.50;;;;;;5039146;28;20021;-59
2023/03/30 01:20:11;;;;;;;6.30;2.60;;;14.40;71.40;;;;;;5048108;28;20040;-60
2023/03/30 01:22:52;;;;;;;6.30;2.65;;;14.40;71.40;;;;;;5039608;28;20029;-59
2023/03/30 01:25:37;;;;;;;5.28;2.40;;;14.40;71.40;;;;;;5052103;28;20021;-61
2023/03/30 01:28:16;;;;;;;6.32;2.63;;;14.40;71.50;;;;;;5035930;28;20036;-60
2023/03/30 01:31:11;;;;;;;5.57;2.70;;;14.30;71.50;;;;;;5022334;28;20516;-60
2023/03/30 01:33:51;;;;;;;6.63;2.60;;;14.30;71.40;;;;;;5043187;28;20030;-60
2023/03/30 01:36:36;;;;;;;8.20;2.67;;;14.30;71.40;;;;;;5046925;28;20056;-59
2023/03/30 01:39:01;;;;;;;6.10;2.20;;;14.30;71.50;;;;;;5042883;28;20053;-60
2023/03/30 01:41:28;;;;;;;6.72;2.35;;;14.30;71.40;;;;;;5037202;28;20068;-59
2023/03/30 01:44:15;;;;;;;5.65;2.10;;;14.30;71.30;;;;;;5037478;28;20025;-60
2023/03/30 01:46:50;;;;;;;6.80;2.90;;;14.30;71.20;;;;;;5044537;28;20029;-59
2023/03/30 01:49:42;;;;;;;6.70;2.30;;;14.30;71.10;;;;;;5045328;28;20029;-59
2023/03/30 01:52:14;;;;;;;7.45;2.60;;;14.30;70.90;;;;;;5041385;28;20099;-60
2023/03/30 01:54:48;;;;;;;7.03;2.47;;;14.40;70.90;;;;;;5045886;28;20056;-59
2023/03/30 01:57:24;;;;;;;6.93;2.58;;;14.40;70.80;;;;;;5041089;28;20477;-60
2023/03/30 02:00:13;;;;;;;5.78;2.35;;;14.40;70.70;;;;;;5041270;28;20067;-60
2023/03/30 02:03:01;;;;;;;6.38;2.40;;;14.40;70.50;;;;;;5021090;28;20438;-60
2023/03/30 02:05:29;;;;;;;5.85;2.25;;;14.40;70.50;;;;;;5030344;28;20045;-59
2023/03/30 02:08:00;;;;;;;6.85;2.35;;;14.40;70.50;;;;;;5034011;28;20083;-59
2023/03/30 02:10:32;;;;;;;6.55;2.42;;;14.40;70.40;;;;;;5023267;28;20433;-60
2023/03/30 02:12:59;;;;;;;7.50;2.50;;;14.40;70.30;;;;;;5035070;28;20049;-59
2023/03/30 02:15:36;;;;;;;6.07;2.20;;;14.40;70.30;;;;;;5053523;28;20074;-59
2023/03/30 02:18:02;;;;;;;6.85;2.17;;;14.40;70.20;;;;;;5036029;28;20029;-59
2023/03/30 02:20:29;;;;;;;4.88;2.28;;;14.40;70.20;;;;;;5040292;28;20036;-60
2023/03/30 02:22:56;;;;;;;6.53;2.25;;;14.40;70.10;;;;;;5037625;28;20083;-60
2023/03/30 02:25:22;;;;;;;6.32;2.55;;;14.40;70.10;;;;;;5047240;28;20060;-60
2023/03/30 02:27:49;;;;;;;6.38;2.13;;;14.40;70.00;;;;;;5040894;28;20021;-60
2023/03/30 02:30:15;;;;;;;7.00;2.63;;;14.40;70.00;;;;;;5039583;28;20025;-60
2023/03/30 02:32:43;;;;;;;6.25;2.50;;;14.40;69.90;;;;;;5038822;28;20025;-60
2023/03/30 02:35:21;;;;;;;4.82;1.95;;;14.40;69.80;;;;;;5036882;28;20051;-60
2023/03/30 02:38:05;;;;;;;7.90;2.10;;;14.40;69.70;;;;;;5038378;28;20029;-60
2023/03/30 02:41:08;;;;;;;5.18;2.13;;;14.40;69.80;;;;;;5039605;28;20032;-60
2023/03/30 02:43:58;;;;;;;6.00;2.08;;;14.40;69.70;;;;;;5040236;28;20450;-60
2023/03/30 02:46:35;;;;;;;6.07;1.90;;;14.40;69.80;;;;;;5032952;28;20040;-60
2023/03/30 02:49:09;;;;;;;7.20;2.00;;;14.40;69.80;;;;;;5039388;28;20033;-60
2023/03/30 02:52:19;;;;;;;4.55;1.60;;;14.30;69.80;;;;;;5036981;28;20026;-59
2023/03/30 02:54:54;;;;;;;5.88;1.80;;;14.30;69.80;;;;;;5028776;28;20049;-59
2023/03/30 02:58:18;;;;;;;4.10;1.60;;;14.30;69.90;;;;;;5033205;28;20416;-60
2023/03/30 03:00:59;;;;;;;4.88;1.95;;;14.40;69.90;;;;;;5035285;28;20029;-59
2023/03/30 03:03:57;;;;;;;5.00;1.95;;;14.40;69.90;;;;;;5030747;28;20061;-59
2023/03/30 03:06:23;;;;;;;5.70;2.13;;;14.40;70.00;;;;;;5026186;28;20067;-60
2023/03/30 03:08:54;;;;;;;5.03;1.98;;;14.40;70.00;;;;;;5041250;28;20013;-59
2023/03/30 03:11:23;;;;;;;7.60;2.50;;;14.40;70.10;;;;;;5021095;28;20029;-59
2023/03/30 03:13:49;;;;;;;7.20;2.13;;;14.40;70.10;;;;;;5035679;28;20033;-59
2023/03/30 03:16:16;;;;;;;4.95;1.98;;;14.40;70.10;;;;;;5044051;28;20032;-59
2023/03/30 03:19:00;;;;;;;5.63;1.67;;;14.40;70.20;;;;;;5026854;28;20377;-60
2023/03/30 03:21:26;;;;;;;5.53;1.98;;;14.40;70.20;;;;;;5040769;28;20116;-59
2023/03/30 03:23:52;;;;;;;5.60;1.60;;;14.40;70.20;;;;;;5045543;28;20454;-63
2023/03/30 03:26:21;;;;;;;5.57;2.00;;;14.40;70.20;;;;;;5045135;28;20489;-59
2023/03/30 03:28:47;;;;;;;5.05;1.63;;;14.50;70.20;;;;;;5036874;28;20339;-59
2023/03/30 03:31:13;;;;;;;7.03;2.00;;;14.40;70.20;;;;;;5036991;28;20047;-59
2023/03/30 03:33:39;;;;;;;5.65;1.67;;;14.40;70.20;;;;;;5040465;28;20035;-59
2023/03/30 03:36:18;;;;;;;6.38;2.35;;;14.40;70.20;;;;;;5042618;28;20064;-59
2023/03/30 03:38:51;;;;;;;6.10;2.20;;;14.40;70.30;;;;;;5038503;28;20035;-60
2023/03/30 03:41:17;;;;;;;6.32;2.35;;;14.40;70.30;;;;;;5037964;28;20025;-60
2023/03/30 03:43:43;;;;;;;5.45;2.05;;;14.40;70.30;;;;;;5034892;28;20029;-60
2023/03/30 03:46:10;;;;;;;5.80;1.92;;;14.30;70.40;;;;;;5043143;28;20045;-60
2023/03/30 03:48:38;;;;;;;5.03;1.95;;;14.30;70.40;;;;;;5024466;28;20060;-60
2023/03/30 03:51:04;;;;;;;5.32;2.10;;;14.30;70.40;;;;;;5037612;28;20099;-60
2023/03/30 03:53:33;;;;;;;6.22;2.05;;;14.30;70.50;;;;;;5045766;28;20102;-59
2023/03/30 03:56:03;;;;;;;6.10;1.67;;;14.30;70.50;;;;;;5038305;28;20108;-60
2023/03/30 03:58:29;;;;;;;5.38;2.08;;;14.30;70.70;;;;;;5050219;28;20120;-60
2023/03/30 04:00:59;;;;;;;4.20;1.33;;;14.20;70.70;;;;;;5042514;28;20120;-58
2023/03/30 04:03:25;;;;;;;6.57;1.95;;;14.30;70.80;;;;;;5027359;28;20112;-59
2023/03/30 04:05:53;;;;;;;8.30;2.00;;;14.20;70.90;;;;;;5031486;28;20520;-59
2023/03/30 04:08:20;;;;;;;4.53;1.80;;;14.20;71.00;;;;;;5028533;28;20105;-60
2023/03/30 04:10:46;;;;;;;6.40;1.63;;;14.20;71.10;;;;;;5021585;28;20114;-59
2023/03/30 04:13:44;;;;;;;4.88;1.40;;;14.20;71.20;;;;;;5017484;28;20026;-60
2023/03/30 04:16:28;;;;;;;5.28;1.60;;;14.30;71.40;;;;;;5024109;28;20057;-59
2023/03/30 04:19:14;;;;;;;4.30;1.50;;;14.30;71.40;;;;;;5022563;28;20081;-59
2023/03/30 04:21:54;;;;;;;3.83;1.63;;;14.30;71.50;;;;;;5018700;28;20076;-60
2023/03/30 04:24:55;;;;;;;3.15;1.38;;;14.30;71.60;;;;;;5018339;28;20071;-59
2023/03/30 04:27:44;;;;;;;3.30;1.50;;;14.30;71.70;;;;;;4997291;28;20443;-60
2023/03/30 04:30:33;;;;;;;3.95;1.60;;;14.30;71.90;;;;;;5022987;28;20034;-60
2023/03/30 04:33:25;;;;;;;2.78;1.23;;;14.30;72.00;;;;;;5020131;28;20405;-60
2023/03/30 04:36:17;;;;;;;4.07;1.35;;;14.30;72.20;;;;;;5017489;28;20056;-59
2023/03/30 04:39:09;;;;;;;3.95;1.40;;;14.30;72.40;;;;;;5016071;28;20471;-60
2023/03/30 04:42:05;;;;;;;3.17;1.30;;;14.30;72.50;;;;;;5016782;28;20025;-60
2023/03/30 04:44:43;;;;;;;4.60;1.52;;;14.30;72.60;;;;;;5007933;28;20373;-60
2023/03/30 04:47:26;;;;;;;4.32;1.77;;;14.30;72.70;;;;;;5011476;28;20068;-59
2023/03/30 04:49:58;;;;;;;3.63;1.20;;;14.30;72.90;;;;;;5017621;28;20229;-60
2023/03/30 04:52:53;;;;;;;6.00;1.27;;;14.30;73.00;;;;;;5019794;28;20121;-60
2023/03/30 04:55:40;;;;;;;4.55;1.65;;;14.30;73.10;;;;;;5017201;28;20459;-60
2023/03/30 04:58:17;;;;;;;3.42;1.38;;;14.30;73.30;;;;;;5022929;28;20026;-60
2023/03/30 05:01:15;;;;;;;4.25;1.45;;;14.30;73.50;;;;;;5024825;28;20154;-60
2023/03/30 05:04:01;;;;;;;5.30;1.67;;;14.30;73.70;;;;;;5040829;28;20042;-60
2023/03/30 05:06:48;;;;;;;8.48;2.00;;;14.30;73.90;;;;;;5030751;28;20040;-60
2023/03/30 05:09:51;;;;;;;6.30;1.90;;;14.30;74.20;;;;;;5054081;28;20060;-61
2023/03/30 05:12:35;;;;;;;3.72;1.50;;;14.20;74.50;;;;;;5035506;28;20098;-60
2023/03/30 05:15:19;;;;;;;6.82;1.85;;;14.20;74.90;;;;;;5028254;28;20102;-60
2023/03/30 05:18:09;;;;;;;4.47;1.67;;;14.10;75.10;;;;;;5035679;28;20029;-60
2023/03/30 05:20:57;;;;;;;4.20;2.00;;;14.10;75.40;;;;;;5026195;28;20119;-60
2023/03/30 05:23:43;;;;;;;4.90;1.80;;;14.10;75.80;;;;;;5041211;28;20051;-60
2023/03/30 05:26:20;;;;;;;4.80;1.83;;;14.10;76.00;;;;;;5032965;28;20095;-60
2023/03/30 05:29:04;;;;;;;7.40;2.10;;;14.10;76.20;;;;;;5035303;28;20060;-59
2023/03/30 05:31:48;;;;;;;7.57;2.30;;;14.10;76.40;;;;;;5036856;28;20099;-58
2023/03/30 05:34:36;;;;;;;6.88;2.10;;;14.00;76.50;;;;;;5031696;28;20040;-60
2023/03/30 05:37:25;;;;;;;6.57;2.05;;;14.00;76.70;;;;;;5032909;28;20603;-59
2023/03/30 05:40:14;;;;;;;6.47;1.90;;;14.00;76.90;;;;;;5031165;28;20029;-57
2023/03/30 05:43:05;;;;;;;5.00;1.83;;;14.00;77.00;;;;;;5050393;28;20029;-58
2023/03/30 05:45:50;;;;;;;5.43;1.98;;;14.00;77.10;;;;;;5039193;28;20037;-57
2023/03/30 05:48:34;;;;;;;5.18;2.33;;;14.00;77.30;;;;;;5042737;28;20033;-59
2023/03/30 05:51:19;;;;;;;8.20;2.38;;;14.00;77.50;;;;;;5041504;28;20519;-60
2023/03/30 05:54:03;;;;;;;6.40;2.67;;;13.90;77.60;;;;;;5055813;28;20120;-59
2023/03/30 05:56:48;;;;;;;6.25;2.50;;;13.90;77.70;;;;;;5039139;28;20103;-59
2023/03/30 05:59:27;;;;;;;7.80;2.80;;;13.90;77.80;;;;;;5034147;28;20021;-58
2023/03/30 06:02:07;;;;;;;6.43;2.83;;;13.90;78.00;;;;;;5034960;28;20339;-58
2023/03/30 06:04:33;;;;;;;6.97;2.42;;;13.90;78.20;;;;;;5030967;28;20034;-58
2023/03/30 06:07:00;;;;;;;8.48;2.95;;;13.90;78.30;;;;;;5033149;28;20045;-57
2023/03/30 06:09:26;;;;;;;6.30;2.17;;;13.90;78.40;;;;;;5033214;28;20055;-58
2023/03/30 06:11:54;;;;;;;7.85;2.60;;;13.90;78.50;;;;;;5034044;28;20028;-59
2023/03/30 06:14:23;;;;;;;8.02;3.22;;;13.90;78.60;;;;;;5033269;28;20021;-59
2023/03/30 06:17:24;;;;;;;7.17;2.43;;;14.00;78.70;;;;;;5030487;28;20029;-58
2023/03/30 06:19:50;;;;;;;6.10;2.17;;;14.00;78.50;;;;;;5039288;28;20111;-59
2023/03/30 06:22:16;;;;;;;7.35;2.50;;;14.00;78.50;;;;;;5033449;28;20116;-59
2023/03/30 06:24:47;;;;;;;8.77;2.83;;;14.00;78.50;;;;;;5016887;28;20030;-60
2023/03/30 06:27:13;;;;;;;11.23;2.97;;;14.00;78.50;;;;;;5034198;28;20029;-59
2023/03/30 06:29:40;;;;;;;7.97;2.47;;;14.10;78.60;;;;;;5030724;28;20026;-58
2023/03/30 06:32:06;;;;;;;8.02;2.72;;;14.10;78.70;;;;;;5028929;28;20025;-59
2023/03/30 06:35:07;;;;;;;9.43;2.70;;;14.10;78.70;;;;;;5028368;28;20465;-59
2023/03/30 06:37:36;;;;;;;6.90;2.17;;;14.10;78.60;;;;;;5032695;28;20409;-58
2023/03/30 06:40:07;;;;;;;5.63;2.00;;;14.10;78.70;;;;;;5022352;28;20030;-57
2023/03/30 06:42:33;;;;;;;8.13;2.47;;;14.10;78.60;;;;;;5033769;28;20044;-59
2023/03/30 06:45:19;;;;;;;7.85;2.65;;;14.20;78.70;;;;;;5031917;28;20107;-60
2023/03/30 06:47:46;;;;;;;6.65;2.00;;;14.10;78.60;;;;;;5033889;28;20044;-62
2023/03/30 06:50:13;;;;;;;6.95;2.58;;;14.20;78.70;;;;;;5031035;28;20068;-62
2023/03/30 06:52:53;;;;;;;9.30;2.38;;;14.10;78.80;;;;;;5032236;28;20021;-60
2023/03/30 06:55:20;;;;;;;10.80;2.90;;;14.10;78.80;;;;;;5013799;28;20112;-63
2023/03/30 06:57:46;;;;;;;8.27;2.53;;;14.10;78.90;;;;;;5046104;28;20433;-61
2023/03/30 07:00:13;;;;;;;7.75;2.15;;;14.10;78.90;;;;;;5036207;28;20116;-62
2023/03/30 07:02:43;;;;;;;6.30;2.30;;;14.10;79.00;;;;;;5033804;28;20041;-62
2023/03/30 07:05:23;;;;;;;10.88;2.35;;;14.20;79.00;;;;;;5042756;28;20029;-63
2023/03/30 07:08:07;;;;;;;5.57;1.88;;;14.10;79.00;;;;;;5047742;28;20029;-62
2023/03/30 07:10:34;;;;;;;9.77;2.40;;;14.10;78.80;;;;;;5033975;28;20034;-62
2023/03/30 07:13:02;;;;;;;8.70;2.58;;;14.10;78.80;;;;;;5034861;28;20565;-62
2023/03/30 07:15:29;;;;;;;8.15;2.30;;;14.10;78.60;;;;;;5043283;28;20113;-61
2023/03/30 07:17:55;;;;;;;9.40;2.53;;;14.10;78.50;;;;;;5046937;28;20341;-61
2023/03/30 07:20:21;;;;;;;6.07;2.00;;;14.10;78.40;;;;;;5039410;28;20108;-61
2023/03/30 07:23:06;;;;;;;8.90;2.35;;;14.10;78.30;;;;;;5046962;28;20031;-61
2023/03/30 07:25:32;;;;;;;8.00;2.50;;;14.20;78.20;;;;;;5045747;28;20454;-62
2023/03/30 07:28:05;;;;;;;5.27;2.10;;;14.30;78.10;;;;;;5049518;28;20106;-62
2023/03/30 07:30:32;;;;;;;8.15;2.28;;;14.40;77.90;;;;;;5036943;28;20116;-62
2023/03/30 07:33:02;;;;;;;11.77;2.40;;;14.70;77.60;;;;;;5013812;28;20064;-63
2023/03/30 07:35:28;;;;;;;7.65;2.70;;;15.00;77.10;;;;;;5009514;28;20061;-63
2023/03/30 07:37:56;;;;;;;7.65;2.40;;;15.30;76.60;;;;;;5030993;28;20048;-63
2023/03/30 07:40:21;;;;;;;8.40;2.20;;;15.50;76.00;;;;;;5029298;28;20411;-63
2023/03/30 07:42:47;;;;;;;8.15;2.22;;;15.60;75.80;;;;;;5031729;28;20029;-62
2023/03/30 07:45:13;;;;;;;9.52;2.38;;;15.60;75.50;;;;;;5032406;28;20048;-61
2023/03/30 07:47:39;;;;;;;9.63;2.15;;;15.60;75.40;;;;;;5032397;28;20029;-62
2023/03/30 07:50:06;;;;;;;8.65;2.40;;;15.60;75.30;;;;;;5012129;28;20026;-62
2023/03/30 07:52:32;;;;;;;10.55;2.10;;;15.60;75.30;;;;;;5029174;28;20354;-62
2023/03/30 07:55:01;;;;;;;8.73;2.40;;;15.40;75.30;;;;;;5031484;28;20029;-61
2023/03/30 07:57:33;;;;;;;6.63;2.40;;;15.30;75.50;;;;;;5029006;28;20091;-62
2023/03/30 07:59:59;;;;;;;9.32;2.10;;;15.30;75.60;;;;;;5026636;28;20029;-63
2023/03/30 08:02:52;;;;;;;8.25;2.13;;;15.20;75.60;;;;;;5030736;28;20041;-61
2023/03/30 08:05:18;;;;;;;9.60;2.53;;;15.10;75.60;;;;;;5031100;28;20504;-62
2023/03/30 08:07:58;;;;;;;11.98;3.50;;;15.10;75.50;;;;;;5031298;28;20026;-62
2023/03/30 08:10:29;;;;;;;9.90;2.65;;;15.00;75.40;;;;;;5015773;28;20026;-62
2023/03/30 08:12:55;;;;;;;10.32;2.33;;;15.00;75.30;;;;;;5032323;28;20076;-62
2023/03/30 08:15:21;;;;;;;10.73;2.83;;;14.90;75.70;;;;;;5038964;28;20101;-62
2023/03/30 08:17:47;;;;;;;10.05;2.45;;;15.00;75.00;;;;;;5049671;28;20128;-62
2023/03/30 08:20:12;;;;;;;12.63;2.90;;;15.00;74.80;;;;;;5052133;28;20381;-62
2023/03/30 08:22:38;;;;;;;11.65;2.17;;;15.00;74.60;;;;;;5051424;28;20033;-62
2023/03/30 08:25:04;;;;;;;10.38;2.88;;;15.00;74.50;;;;;;5042714;28;20129;-61
2023/03/30 08:27:30;;;;;;;12.70;2.72;;;15.00;74.30;;;;;;5057654;28;20029;-61
2023/03/30 08:29:56;;;;;;;12.63;2.80;;;15.10;74.20;;;;;;5052585;28;20033;-62
2023/03/30 08:32:22;;;;;;;13.45;2.40;;;15.10;73.90;;;;;;5036841;28;20068;-61
2023/03/30 08:34:48;;;;;;;10.80;2.35;;;15.30;73.70;;;;;;5034982;28;20029;-61
2023/03/30 08:37:14;;;;;;;13.10;2.60;;;15.40;73.20;;;;;;5038612;28;20029;-62
2023/03/30 08:39:40;;;;;;;10.45;2.67;;;15.60;72.70;;;;;;5040231;28;20037;-62
2023/03/30 08:42:34;;;;;;;10.98;3.00;;;15.90;72.10;;;;;;5036367;28;20315;-63
2023/03/30 08:45:04;;;;;;;11.77;2.20;;;16.20;71.10;;;;;;5034035;28;20099;-63
2023/03/30 08:47:36;;;;;;;9.70;3.17;;;16.40;70.60;;;;;;5044878;28;20051;-63
2023/03/30 08:50:15;;;;;;;9.40;2.47;;;16.40;70.40;;;;;;5057293;28;20033;-63
2023/03/30 08:52:42;;;;;;;9.35;2.42;;;16.30;70.50;;;;;;5053155;28;20050;-63
2023/03/30 08:55:42;;;;;;;13.55;2.72;;;16.10;70.70;;;;;;5057164;28;20338;-63
2023/03/30 08:58:10;;;;;;;11.68;2.72;;;16.00;70.90;;;;;;5056620;28;20103;-63
2023/03/30 09:00:36;;;;;;;12.13;2.97;;;15.80;71.10;;;;;;5057297;28;20098;-63
2023/03/30 09:03:13;;;;;;;12.68;2.65;;;15.70;71.20;;;;;;5050685;28;20462;-63
2023/03/30 09:05:49;;;;;;;11.43;2.85;;;15.70;71.20;;;;;;5053242;28;20029;-63
2023/03/30 09:08:23;;;;;;;10.70;3.08;;;15.60;71.20;;;;;;5056927;28;20025;-63
2023/03/30 09:11:05;;;;;;;10.10;2.50;;;15.50;71.20;;;;;;5057086;28;20033;-63
2023/03/30 09:13:35;;;;;;;10.18;2.35;;;15.50;71.40;;;;;;5049432;28;20017;-63
2023/03/30 09:16:31;;;;;;;11.70;2.50;;;15.40;71.40;;;;;;5052581;28;20036;-63
2023/03/30 09:18:59;;;;;;;12.75;2.60;;;15.30;71.20;;;;;;5048084;28;20034;-63
2023/03/30 09:21:29;;;;;;;12.27;3.15;;;15.30;71.30;;;;;;5051343;28;20025;-63
2023/03/30 09:23:57;;;;;;;10.40;2.60;;;15.30;71.50;;;;;;5051453;28;20032;-63
2023/03/30 09:26:39;;;;;;;11.85;3.28;;;15.20;71.90;;;;;;5040556;28;20166;-63
2023/03/30 09:29:13;;;;;;;11.07;2.70;;;15.20;72.40;;;;;;5032109;28;20067;-62
2023/03/30 09:31:50;;;;;;;11.80;2.85;;;15.10;72.90;;;;;;5039931;28;20037;-63
2023/03/30 09:34:26;;;;;;;12.93;2.97;;;15.00;73.20;;;;;;5022894;28;20338;-62
2023/03/30 09:36:59;;;;;;;11.52;2.88;;;15.00;73.60;;;;;;5035763;28;20133;-62
2023/03/30 09:39:27;;;;;;;15.07;3.10;;;15.20;73.70;;;;;;5035759;28;20030;-63
2023/03/30 09:42:07;;;;;;;14.10;3.40;;;15.30;73.50;;;;;;5032883;28;20462;-62
2023/03/30 09:44:39;;;;;;;12.82;3.25;;;15.60;73.30;;;;;;5033662;28;20108;-62
2023/03/30 09:47:21;;;;;;;14.93;3.80;;;15.90;72.80;;;;;;5038061;28;20490;-63
2023/03/30 09:49:47;;;;;;;16.85;3.53;;;16.00;72.40;;;;;;5037548;28;20080;-63
2023/03/30 09:52:20;;;;;;;11.45;2.83;;;16.00;72.40;;;;;;5037869;28;20045;-63
2023/03/30 09:54:46;;;;;;;12.35;3.05;;;15.90;72.40;;;;;;5035500;28;20358;-62
2023/03/30 09:57:27;;;;;;;11.63;3.17;;;15.70;72.50;;;;;;5035725;28;20030;-62
2023/03/30 09:59:56;;;;;;;14.20;3.38;;;15.60;72.60;;;;;;5036480;28;20068;-63
2023/03/30 10:02:29;;;;;;;14.38;2.85;;;15.60;72.70;;;;;;5036433;28;20037;-62
2023/03/30 10:04:59;;;;;;;12.77;3.33;;;15.60;72.30;;;;;;5044588;28;20033;-63
2023/03/30 10:07:36;;;;;;;15.50;2.95;;;15.60;72.30;;;;;;5040951;28;20113;-62
2023/03/30 10:10:25;;;;;;;15.50;3.60;;;15.70;72.10;;;;;;5024097;28;20496;-62
2023/03/30 10:13:00;;;;;;;14.85;3.83;;;15.90;71.60;;;;;;5032922;28;20120;-62
2023/03/30 10:15:30;;;;;;;17.52;4.03;;;16.10;70.90;;;;;;5034301;28;20036;-62
2023/03/30 10:18:01;;;;;;;16.08;3.80;;;16.30;70.40;;;;;;5034469;28;20033;-63
2023/03/30 10:20:28;;;;;;;14.20;3.67;;;16.50;69.60;;;;;;5032566;28;20121;-63
2023/03/30 10:23:13;;;;;;;12.68;3.67;;;16.60;69.30;;;;;;5034780;28;20039;-62
2023/03/30 10:25:41;;;;;;;13.10;3.08;;;16.60;69.10;;;;;;5032812;28;20029;-62
2023/03/30 10:28:26;;;;;;;13.00;2.88;;;16.40;69.00;;;;;;5035317;28;20040;-62
2023/03/30 10:30:56;;;;;;;12.60;3.03;;;16.30;68.90;;;;;;5032479;28;20032;-62
2023/03/30 10:33:22;;;;;;;9.77;2.90;;;16.20;68.90;;;;;;5031405;28;20346;-63
2023/03/30 10:35:52;;;;;;;16.42;3.47;;;16.10;69.00;;;;;;5032071;28;20036;-61
2023/03/30 10:38:19;;;;;;;11.73;3.25;;;16.00;68.70;;;;;;5028855;28;20467;-62
2023/03/30 10:40:46;;;;;;;10.60;3.03;;;15.90;68.80;;;;;;5031807;28;20095;-62
2023/03/30 10:43:15;;;;;;;12.98;3.70;;;15.90;68.70;;;;;;5032755;28;20033;-63
2023/03/30 10:45:48;;;;;;;12.95;3.67;;;15.90;68.60;;;;;;5032705;28;20101;-62
2023/03/30 10:48:19;;;;;;;13.45;3.88;;;15.90;68.30;;;;;;5033410;28;20045;-63
2023/03/30 10:50:51;;;;;;;11.65;3.30;;;16.00;68.20;;;;;;5032698;28;20109;-62
2023/03/30 10:53:29;;;;;;;14.75;3.47;;;16.10;67.50;;;;;;5031421;28;20017;-62
2023/03/30 10:56:13;;;;;;;11.23;3.58;;;16.40;67.10;;;;;;5031991;28;20034;-63
2023/03/30 10:58:57;;;;;;;10.05;3.50;;;16.60;66.50;;;;;;5027759;28;20099;-63
2023/03/30 11:01:45;;;;;;;12.68;3.22;;;16.60;66.20;;;;;;5027418;28;20033;-63
2023/03/30 11:04:20;;;;;;;11.90;3.30;;;16.60;66.10;;;;;;5032508;28;20029;-63
2023/03/30 11:06:48;;;;;;;15.13;3.28;;;16.60;66.10;;;;;;5028280;28;20204;-63
2023/03/30 11:09:21;;;;;;;14.45;4.32;;;16.50;66.30;;;;;;5030808;28;20021;-63
2023/03/30 11:12:01;;;;;;;16.88;3.95;;;16.40;66.40;;;;;;5024990;28;20025;-63
2023/03/30 11:14:46;;;;;;;13.35;3.38;;;16.30;66.50;;;;;;5035981;28;20036;-63
2023/03/30 11:17:22;;;;;;;12.10;3.20;;;16.20;66.60;;;;;;5047079;28;20381;-63
2023/03/30 11:19:54;;;;;;;14.85;4.22;;;16.20;66.80;;;;;;5037716;28;20033;-62
2023/03/30 11:22:35;;;;;;;16.30;4.07;;;16.20;66.90;;;;;;5046615;28;20047;-62
2023/03/30 11:25:08;;;;;;;13.02;4.28;;;16.30;66.80;;;;;;5038224;28;20071;-62
2023/03/30 11:27:41;;;;;;;12.77;3.60;;;16.30;66.70;;;;;;5047180;28;20478;-63
2023/03/30 11:30:15;;;;;;;13.90;4.10;;;16.40;66.60;;;;;;5049474;28;20079;-63
2023/03/30 11:33:00;;;;;;;14.52;3.88;;;16.50;66.30;;;;;;5045676;28;20029;-63
2023/03/30 11:35:44;;;;;;;15.20;3.65;;;16.80;66.00;;;;;;5034780;28;20044;-63
2023/03/30 11:38:16;;;;;;;14.02;3.67;;;17.10;65.20;;;;;;5051510;28;20047;-63
2023/03/30 11:40:46;;;;;;;12.25;3.15;;;17.40;64.20;;;;;;5041649;28;20036;-63
2023/03/30 11:43:17;;;;;;;7.97;3.10;;;17.60;63.90;;;;;;5043518;28;20358;-62
2023/03/30 11:46:08;;;;;;;14.02;3.65;;;17.80;63.50;;;;;;5050661;28;20073;-63
2023/03/30 11:48:40;;;;;;;14.75;3.50;;;17.80;63.20;;;;;;5048364;28;20326;-63
2023/03/30 11:51:21;;;;;;;11.05;3.38;;;17.80;63.00;;;;;;5050435;28;20040;-63
2023/03/30 11:53:50;;;;;;;;;;;17.70;62.70;;;;;;5035868;28;20041;-62
2023/03/30 11:56:16;;;;;;;11.10;3.08;;;17.70;63.20;;;;;;5026502;28;19920;-61
2023/03/30 11:58:50;;;;;;;8.18;2.40;;;17.70;62.80;;;;;;5047473;28;20035;-62
2023/03/30 12:01:25;;;;;;;12.48;3.25;;;17.60;62.50;;;;;;5047559;28;20116;-63
2023/03/30 12:04:07;;;;;;;10.38;2.92;;;17.60;62.40;;;;;;5048776;28;20168;-63
2023/03/30 12:06:38;;;;;;;10.68;2.65;;;17.40;62.30;;;;;;5033207;28;20326;-62
2023/03/30 12:09:13;;;;;;;13.90;3.55;;;17.30;62.40;;;;;;5030425;28;20095;-62
2023/03/30 12:11:59;;;;;;;13.05;3.50;;;17.10;62.40;;;;;;5028242;28;20029;-62
2023/03/30 12:14:40;;;;;;;14.07;3.00;;;17.00;62.60;;;;;;5029816;28;20033;-63
2023/03/30 12:17:32;;;;;;;10.48;2.58;;;16.90;62.90;;;;;;5008773;28;20040;-63
2023/03/30 12:20:16;;;;;;;8.30;2.47;;;16.90;62.90;;;;;;5042408;28;20414;-62
2023/03/30 12:22:48;;;;;;;11.60;3.25;;;16.80;62.80;;;;;;5034749;28;20113;-63
2023/03/30 12:25:34;;;;;;;10.13;2.30;;;16.80;62.90;;;;;;5039849;28;20037;-63
2023/03/30 12:28:16;;;;;;;12.50;3.30;;;16.70;62.90;;;;;;5049672;28;20436;-62
2023/03/30 12:30:47;;;;;;;13.68;2.70;;;16.70;63.10;;;;;;5050805;28;20025;-63
2023/03/30 12:33:19;;;;;;;11.57;2.60;;;16.70;63.10;;;;;;5029615;28;20034;-62
2023/03/30 12:35:48;;;;;;;8.77;2.38;;;16.70;63.10;;;;;;5024089;28;20033;-63
2023/03/30 12:38:22;;;;;;;10.85;2.30;;;16.60;63.00;;;;;;5044106;28;20383;-63
2023/03/30 12:41:01;;;;;;;12.57;2.95;;;16.60;62.80;;;;;;5053687;28;20109;-63
2023/03/30 12:43:49;;;;;;;13.40;2.90;;;16.50;62.60;;;;;;5048945;28;20036;-63
2023/03/30 12:46:36;;;;;;;10.18;2.95;;;16.50;62.40;;;;;;5053845;28;20438;-63
2023/03/30 12:49:20;;;;;;;8.60;2.33;;;16.50;62.40;;;;;;5043181;28;20151;-63
2023/03/30 12:52:13;;;;;;;11.50;2.22;;;16.60;62.20;;;;;;5047824;28;20029;-63
2023/03/30 12:54:57;;;;;;;11.02;2.38;;;16.70;62.10;;;;;;5026659;28;20025;-63
2023/03/30 12:57:32;;;;;;;11.77;2.67;;;16.70;62.00;;;;;;5036327;28;20018;-63
2023/03/30 13:00:29;;;;;;;14.52;3.25;;;16.70;62.10;;;;;;5034134;28;20033;-62
2023/03/30 13:02:55;;;;;;;11.85;2.85;;;16.70;62.20;;;;;;5027834;28;20450;-62
2023/03/30 13:05:30;;;;;;;12.63;3.20;;;16.70;62.30;;;;;;5031378;28;20043;-63
2023/03/30 13:08:03;;;;;;;11.52;2.80;;;16.80;62.40;;;;;;5045241;28;20037;-62
2023/03/30 13:10:29;;;;;;;15.00;3.42;;;16.80;62.10;;;;;;5036111;28;20327;-63
2023/03/30 13:12:57;;;;;;;13.57;3.22;;;16.70;62.20;;;;;;5035645;28;20060;-63
2023/03/30 13:15:37;;;;;;;11.25;2.53;;;16.60;62.00;;;;;;5040960;28;20175;-63
2023/03/30 13:18:22;;;;;;;13.77;3.00;;;16.60;61.90;;;;;;5050856;28;20087;-63
2023/03/30 13:20:54;;;;;;;12.98;2.90;;;16.70;61.80;;;;;;5036826;28;20132;-62
2023/03/30 13:23:26;;;;;;;18.05;3.53;;;16.60;61.80;;;;;;5036424;28;20044;-62